sensor_id;sensor_type;location;lat;lon;timestamp;pressure;altitude;pressure_sealevel;temperature;humidity
11487;BME280;10510;47.942;9.442;2023-09-19T00:00:27;94430.41;;;15.03;100.00
11487;BME280;10510;47.942;9.442;2023-09-19T00:02:27;94428.78;;;15.02;100.00
11487;BME280;10510;47.942;9.442;2023-09-19T00:04:31;94422.72;;;15.02;100.00
11487;BME280;10510;47.942;9.442;2023-09-19T00:06:32;94424.53;;;15.01;100.00
11487;BME280;10510;47.942;9.442;2023-09-19T00:08:33;94430.00;;;14.99;100.00
11487;BME280;10510;47.942;9.442;2023-09-19T00:10:33;94431.25;;;14.97;100.00
11487;BME280;10510;47.942;9.442;2023-09-19T00:12:36;94430.66;;;14.95;100.00
11487;BME280;10510;47.942;9.442;2023-09-19T00:14:37;94439.78;;;14.92;100.00
11487;BME280;10510;47.942;9.442;2023-09-19T00:16:37;94424.22;;;14.91;100.00
11487;BME280;10510;47.942;9.442;2023-09-19T00:18:38;94423.63;;;14.89;100.00
11487;BME280;10510;47.942;9.442;2023-09-19T00:20:38;94420.59;;;14.85;100.00
11487;BME280;10510;47.942;9.442;2023-09-19T00:22:40;94426.28;;;14.82;100.00
11487;BME280;10510;47.942;9.442;2023-09-19T00:24:41;94423.91;;;14.81;100.00
11487;BME280;10510;47.942;9.442;2023-09-19T00:26:42;94417.84;;;14.80;100.00
11487;BME280;10510;47.942;9.442;2023-09-19T00:28:42;94426.16;;;14.77;100.00
11487;BME280;10510;47.942;9.442;2023-09-19T00:30:43;94424.97;;;14.73;100.00
11487;BME280;10510;47.942;9.442;2023-09-19T00:32:43;94422.75;;;14.70;100.00
11487;BME280;10510;47.942;9.442;2023-09-19T00:34:44;94430.28;;;14.66;100.00
11487;BME280;10510;47.942;9.442;2023-09-19T00:36:44;94428.88;;;14.64;100.00
11487;BME280;10510;47.942;9.442;2023-09-19T00:38:45;94428.25;;;14.62;100.00
11487;BME280;10510;47.942;9.442;2023-09-19T00:40:50;94427.69;;;14.60;100.00
11487;BME280;10510;47.942;9.442;2023-09-19T00:42:57;94423.44;;;14.59;100.00
11487;BME280;10510;47.942;9.442;2023-09-19T00:45:00;94429.53;;;14.59;100.00
11487;BME280;10510;47.942;9.442;2023-09-19T00:47:03;94429.72;;;14.58;100.00
11487;BME280;10510;47.942;9.442;2023-09-19T00:49:04;94433.16;;;14.58;100.00
11487;BME280;10510;47.942;9.442;2023-09-19T00:51:04;94428.69;;;14.59;100.00
11487;BME280;10510;47.942;9.442;2023-09-19T00:53:05;94430.31;;;14.60;100.00
11487;BME280;10510;47.942;9.442;2023-09-19T00:55:11;94436.16;;;14.62;100.00
11487;BME280;10510;47.942;9.442;2023-09-19T00:57:14;94440.41;;;14.63;100.00
11487;BME280;10510;47.942;9.442;2023-09-19T00:59:15;94443.66;;;14.65;100.00
11487;BME280;10510;47.942;9.442;2023-09-19T01:01:16;94450.50;;;14.66;100.00
11487;BME280;10510;47.942;9.442;2023-09-19T01:03:17;94453.75;;;14.68;100.00
11487;BME280;10510;47.942;9.442;2023-09-19T01:05:18;94451.91;;;14.68;100.00
11487;BME280;10510;47.942;9.442;2023-09-19T01:07:19;94452.72;;;14.69;100.00
11487;BME280;10510;47.942;9.442;2023-09-19T01:09:20;94453.31;;;14.71;100.00
11487;BME280;10510;47.942;9.442;2023-09-19T01:11:37;94454.31;;;14.70;100.00
11487;BME280;10510;47.942;9.442;2023-09-19T01:15:55;94447.44;;;14.69;100.00
11487;BME280;10510;47.942;9.442;2023-09-19T01:18:27;94447.88;;;14.66;100.00
11487;BME280;10510;47.942;9.442;2023-09-19T01:20:45;94449.91;;;14.64;100.00
11487;BME280;10510;47.942;9.442;2023-09-19T01:23:12;94449.91;;;14.64;100.00
11487;BME280;10510;47.942;9.442;2023-09-19T01:28:05;94450.72;;;14.64;100.00
11487;BME280;10510;47.942;9.442;2023-09-19T01:30:13;94455.78;;;14.66;100.00
11487;BME280;10510;47.942;9.442;2023-09-19T01:32:17;94464.47;;;14.66;100.00
11487;BME280;10510;47.942;9.442;2023-09-19T01:34:21;94453.94;;;14.66;100.00
11487;BME280;10510;47.942;9.442;2023-09-19T01:36:21;94467.09;;;14.66;100.00
11487;BME280;10510;47.942;9.442;2023-09-19T01:38:23;94455.78;;;14.66;100.00
11487;BME280;10510;47.942;9.442;2023-09-19T01:40:23;94463.84;;;14.64;100.00
11487;BME280;10510;47.942;9.442;2023-09-19T01:42:37;94463.28;;;14.62;100.00
11487;BME280;10510;47.942;9.442;2023-09-19T01:44:51;94464.28;;;14.61;100.00
11487;BME280;10510;47.942;9.442;2023-09-19T01:46:58;94456.63;;;14.60;100.00
11487;BME280;10510;47.942;9.442;2023-09-19T01:51:32;94468.13;;;14.59;100.00
11487;BME280;10510;47.942;9.442;2023-09-19T01:53:53;94471.19;;;14.56;100.00
11487;BME280;10510;47.942;9.442;2023-09-19T01:55:57;94466.34;;;14.52;100.00
11487;BME280;10510;47.942;9.442;2023-09-19T01:58:06;94470.41;;;14.48;100.00
11487;BME280;10510;47.942;9.442;2023-09-19T02:00:09;94470.81;;;14.45;100.00
11487;BME280;10510;47.942;9.442;2023-09-19T02:02:12;94469.22;;;14.44;100.00
11487;BME280;10510;47.942;9.442;2023-09-19T02:04:14;94471.84;;;14.44;100.00
11487;BME280;10510;47.942;9.442;2023-09-19T02:06:15;94466.78;;;14.43;100.00
11487;BME280;10510;47.942;9.442;2023-09-19T02:08:19;94468.63;;;14.42;100.00
11487;BME280;10510;47.942;9.442;2023-09-19T02:10:20;94468.63;;;14.42;100.00
11487;BME280;10510;47.942;9.442;2023-09-19T02:12:20;94463.56;;;14.41;100.00
11487;BME280;10510;47.942;9.442;2023-09-19T02:14:20;94468.03;;;14.40;100.00
11487;BME280;10510;47.942;9.442;2023-09-19T02:16:21;94462.16;;;14.38;100.00
11487;BME280;10510;47.942;9.442;2023-09-19T02:18:21;94468.25;;;14.39;100.00
11487;BME280;10510;47.942;9.442;2023-09-19T02:20:22;94469.25;;;14.38;100.00
11487;BME280;10510;47.942;9.442;2023-09-19T02:22:22;94476.13;;;14.39;100.00
11487;BME280;10510;47.942;9.442;2023-09-19T02:24:22;94473.69;;;14.37;100.00
11487;BME280;10510;47.942;9.442;2023-09-19T02:26:26;94481.59;;;14.37;100.00
11487;BME280;10510;47.942;9.442;2023-09-19T02:28:27;94477.34;;;14.36;100.00
11487;BME280;10510;47.942;9.442;2023-09-19T02:30:32;94478.16;;;14.37;100.00
11487;BME280;10510;47.942;9.442;2023-09-19T02:32:33;94478.34;;;14.35;100.00
11487;BME280;10510;47.942;9.442;2023-09-19T02:34:36;94478.56;;;14.34;100.00
11487;BME280;10510;47.942;9.442;2023-09-19T02:36:38;94477.97;;;14.31;100.00
11487;BME280;10510;47.942;9.442;2023-09-19T02:38:38;94483.66;;;14.28;100.00
11487;BME280;10510;47.942;9.442;2023-09-19T02:40:39;94490.72;;;14.28;100.00
11487;BME280;10510;47.942;9.442;2023-09-19T02:42:39;94487.91;;;14.23;100.00
11487;BME280;10510;47.942;9.442;2023-09-19T02:44:42;94494.81;;;14.17;100.00
11487;BME280;10510;47.942;9.442;2023-09-19T02:46:42;94498.47;;;14.16;100.00
11487;BME280;10510;47.942;9.442;2023-09-19T02:48:43;94496.25;;;14.13;100.00
11487;BME280;10510;47.942;9.442;2023-09-19T02:50:43;94501.69;;;14.12;100.00
11487;BME280;10510;47.942;9.442;2023-09-19T02:52:45;94502.13;;;14.08;100.00
11487;BME280;10510;47.942;9.442;2023-09-19T02:54:48;94501.31;;;14.08;100.00
11487;BME280;10510;47.942;9.442;2023-09-19T02:56:49;94503.16;;;14.07;100.00
11487;BME280;10510;47.942;9.442;2023-09-19T02:58:49;94504.97;;;14.07;100.00
11487;BME280;10510;47.942;9.442;2023-09-19T03:00:50;94507.19;;;14.10;100.00
11487;BME280;10510;47.942;9.442;2023-09-19T03:02:54;94506.53;;;14.15;100.00
11487;BME280;10510;47.942;9.442;2023-09-19T03:04:54;94507.75;;;14.19;100.00
11487;BME280;10510;47.942;9.442;2023-09-19T03:06:56;94503.69;;;14.23;100.00
11487;BME280;10510;47.942;9.442;2023-09-19T03:09:00;94503.50;;;14.24;100.00
11487;BME280;10510;47.942;9.442;2023-09-19T03:11:00;94504.28;;;14.25;100.00
11487;BME280;10510;47.942;9.442;2023-09-19T03:13:01;94509.13;;;14.28;100.00
11487;BME280;10510;47.942;9.442;2023-09-19T03:15:02;94506.50;;;14.28;100.00
11487;BME280;10510;47.942;9.442;2023-09-19T03:17:04;94508.09;;;14.29;100.00
11487;BME280;10510;47.942;9.442;2023-09-19T03:19:05;94509.75;;;14.30;100.00
11487;BME280;10510;47.942;9.442;2023-09-19T03:21:05;94509.75;;;14.30;100.00
11487;BME280;10510;47.942;9.442;2023-09-19T03:23:05;94503.25;;;14.32;100.00
11487;BME280;10510;47.942;9.442;2023-09-19T03:25:07;94498.81;;;14.33;100.00
11487;BME280;10510;47.942;9.442;2023-09-19T03:27:12;94502.00;;;14.35;100.00
11487;BME280;10510;47.942;9.442;2023-09-19T03:29:16;94501.44;;;14.33;100.00
11487;BME280;10510;47.942;9.442;2023-09-19T03:31:17;94505.66;;;14.34;100.00
11487;BME280;10510;47.942;9.442;2023-09-19T03:33:17;94502.00;;;14.35;100.00
11487;BME280;10510;47.942;9.442;2023-09-19T03:35:19;94487.88;;;14.36;100.00
11487;BME280;10510;47.942;9.442;2023-09-19T03:37:19;94496.56;;;14.37;100.00
11487;BME280;10510;47.942;9.442;2023-09-19T03:39:19;94502.63;;;14.37;100.00
11487;BME280;10510;47.942;9.442;2023-09-19T03:41:20;94502.84;;;14.36;100.00
11487;BME280;10510;47.942;9.442;2023-09-19T03:43:20;94502.84;;;14.36;100.00
11487;BME280;10510;47.942;9.442;2023-09-19T03:45:20;94503.84;;;14.35;100.00
11487;BME280;10510;47.942;9.442;2023-09-19T03:47:21;94509.09;;;14.35;100.00
11487;BME280;10510;47.942;9.442;2023-09-19T03:49:21;94508.09;;;14.36;100.00
11487;BME280;10510;47.942;9.442;2023-09-19T03:51:21;94502.00;;;14.35;100.00
11487;BME280;10510;47.942;9.442;2023-09-19T03:53:22;94492.31;;;14.36;100.00
11487;BME280;10510;47.942;9.442;2023-09-19T03:55:22;94497.59;;;14.36;100.00
11487;BME280;10510;47.942;9.442;2023-09-19T03:57:22;94495.16;;;14.34;100.00
11487;BME280;10510;47.942;9.442;2023-09-19T03:59:22;94499.59;;;14.34;100.00
11487;BME280;10510;47.942;9.442;2023-09-19T04:01:23;94499.81;;;14.32;100.00
11487;BME280;10510;47.942;9.442;2023-09-19T04:03:24;94503.44;;;14.31;100.00
11487;BME280;10510;47.942;9.442;2023-09-19T04:05:34;94510.72;;;14.29;100.00
11487;BME280;10510;47.942;9.442;2023-09-19T04:07:34;94511.16;;;14.26;100.00
11487;BME280;10510;47.942;9.442;2023-09-19T04:09:35;94514.19;;;14.23;100.00
11487;BME280;10510;47.942;9.442;2023-09-19T04:11:35;94517.06;;;14.21;100.00
11487;BME280;10510;47.942;9.442;2023-09-19T04:13:36;94517.84;;;14.22;100.00
11487;BME280;10510;47.942;9.442;2023-09-19T04:15:36;94518.88;;;14.21;100.00
11487;BME280;10510;47.942;9.442;2023-09-19T04:17:37;94515.22;;;14.22;100.00
11487;BME280;10510;47.942;9.442;2023-09-19T04:19:37;94514.19;;;14.23;100.00
11487;BME280;10510;47.942;9.442;2023-09-19T04:21:38;94509.97;;;14.22;100.00
11487;BME280;10510;47.942;9.442;2023-09-19T04:23:38;94516.81;;;14.23;100.00
11487;BME280;10510;47.942;9.442;2023-09-19T04:25:40;94508.13;;;14.22;100.00
11487;BME280;10510;47.942;9.442;2023-09-19T04:27:40;94510.75;;;14.22;100.00
11487;BME280;10510;47.942;9.442;2023-09-19T04:29:44;94511.00;;;14.21;100.00
11487;BME280;10510;47.942;9.442;2023-09-19T04:31:44;94515.41;;;14.20;100.00
11487;BME280;10510;47.942;9.442;2023-09-19T04:33:46;94515.41;;;14.20;100.00
11487;BME280;10510;47.942;9.442;2023-09-19T04:35:49;94526.75;;;14.21;100.00
11487;BME280;10510;47.942;9.442;2023-09-19T04:37:50;94528.56;;;14.20;100.00
11487;BME280;10510;47.942;9.442;2023-09-19T04:39:50;94525.13;;;14.20;100.00
11487;BME280;10510;47.942;9.442;2023-09-19T04:41:52;94528.97;;;14.24;100.00
11487;BME280;10510;47.942;9.442;2023-09-19T04:43:52;94530.78;;;14.23;100.00
11487;BME280;10510;47.942;9.442;2023-09-19T04:45:53;94525.50;;;14.23;100.00
11487;BME280;10510;47.942;9.442;2023-09-19T04:47:55;94527.34;;;14.23;100.00
11487;BME280;10510;47.942;9.442;2023-09-19T04:49:56;94524.72;;;14.23;100.00
11487;BME280;10510;47.942;9.442;2023-09-19T04:51:59;94530.78;;;14.23;100.00
11487;BME280;10510;47.942;9.442;2023-09-19T04:53:59;94529.16;;;14.22;100.00
11487;BME280;10510;47.942;9.442;2023-09-19T04:55:59;94536.25;;;14.22;100.00
11487;BME280;10510;47.942;9.442;2023-09-19T04:57:59;94550.19;;;14.22;100.00
11487;BME280;10510;47.942;9.442;2023-09-19T05:00:00;94540.47;;;14.23;100.00
11487;BME280;10510;47.942;9.442;2023-09-19T05:02:00;94543.72;;;14.25;100.00
11487;BME280;10510;47.942;9.442;2023-09-19T05:04:00;94548.97;;;14.25;100.00
11487;BME280;10510;47.942;9.442;2023-09-19T05:06:01;94549.59;;;14.27;100.00
11487;BME280;10510;47.942;9.442;2023-09-19T05:08:01;94543.31;;;14.28;100.00
11487;BME280;10510;47.942;9.442;2023-09-19T05:10:05;94553.81;;;14.28;100.00
11487;BME280;10510;47.942;9.442;2023-09-19T05:12:06;94555.41;;;14.29;100.00
11487;BME280;10510;47.942;9.442;2023-09-19T05:14:07;94555.41;;;14.29;100.00
11487;BME280;10510;47.942;9.442;2023-09-19T05:16:07;94556.25;;;14.29;100.00
11487;BME280;10510;47.942;9.442;2023-09-19T05:18:10;94560.66;;;14.29;100.00
11487;BME280;10510;47.942;9.442;2023-09-19T05:20:11;94566.97;;;14.28;100.00
11487;BME280;10510;47.942;9.442;2023-09-19T05:22:27;94559.06;;;14.28;100.00
11487;BME280;10510;47.942;9.442;2023-09-19T05:24:27;94559.06;;;14.28;100.00
11487;BME280;10510;47.942;9.442;2023-09-19T05:26:27;94561.69;;;14.28;100.00
11487;BME280;10510;47.942;9.442;2023-09-19T05:28:27;94562.72;;;14.27;100.00
11487;BME280;10510;47.942;9.442;2023-09-19T05:30:28;94567.97;;;14.27;100.00
11487;BME280;10510;47.942;9.442;2023-09-19T05:32:29;94570.38;;;14.28;100.00
11487;BME280;10510;47.942;9.442;2023-09-19T05:34:29;94578.06;;;14.30;100.00
11487;BME280;10510;47.942;9.442;2023-09-19T05:36:30;94576.63;;;14.34;100.00
11487;BME280;10510;47.942;9.442;2023-09-19T05:38:30;94583.31;;;14.37;100.00
11487;BME280;10510;47.942;9.442;2023-09-19T05:40:31;94583.69;;;14.40;100.00
11487;BME280;10510;47.942;9.442;2023-09-19T05:42:31;94587.72;;;14.43;100.00
11487;BME280;10510;47.942;9.442;2023-09-19T05:44:31;94584.91;;;14.44;100.00
11487;BME280;10510;47.942;9.442;2023-09-19T05:46:33;94590.56;;;14.48;100.00
11487;BME280;10510;47.942;9.442;2023-09-19T05:48:33;94587.50;;;14.51;100.00
11487;BME280;10510;47.942;9.442;2023-09-19T05:50:34;94588.94;;;14.53;100.00
11487;BME280;10510;47.942;9.442;2023-09-19T05:52:38;94601.06;;;14.54;100.00
11487;BME280;10510;47.942;9.442;2023-09-19T05:54:38;94602.66;;;14.56;100.00
11487;BME280;10510;47.942;9.442;2023-09-19T05:56:38;94598.25;;;14.56;100.00
11487;BME280;10510;47.942;9.442;2023-09-19T05:58:39;94591.34;;;14.55;100.00
11487;BME280;10510;47.942;9.442;2023-09-19T06:00:41;94593.38;;;14.60;100.00
11487;BME280;10510;47.942;9.442;2023-09-19T06:02:43;94601.44;;;14.65;100.00
11487;BME280;10510;47.942;9.442;2023-09-19T06:04:45;94605.44;;;14.67;100.00
11487;BME280;10510;47.942;9.442;2023-09-19T06:06:45;94598.16;;;14.69;100.00
11487;BME280;10510;47.942;9.442;2023-09-19T06:08:48;94589.84;;;14.72;100.00
11487;BME280;10510;47.942;9.442;2023-09-19T06:10:50;94593.91;;;14.75;100.00
11487;BME280;10510;47.942;9.442;2023-09-19T06:12:52;94589.03;;;14.79;100.00
11487;BME280;10510;47.942;9.442;2023-09-19T06:14:53;94593.66;;;14.83;100.00
11487;BME280;10510;47.942;9.442;2023-09-19T06:16:54;94591.22;;;14.88;100.00
11487;BME280;10510;47.942;9.442;2023-09-19T06:18:54;94593.00;;;14.94;100.00
11487;BME280;10510;47.942;9.442;2023-09-19T06:20:56;94593.97;;;15.00;100.00
11487;BME280;10510;47.942;9.442;2023-09-19T06:22:57;94594.56;;;15.02;100.00
11487;BME280;10510;47.942;9.442;2023-09-19T06:24:57;94590.88;;;15.10;100.00
11487;BME280;10510;47.942;9.442;2023-09-19T06:26:57;94593.84;;;15.20;100.00
11487;BME280;10510;47.942;9.442;2023-09-19T06:29:01;94593.75;;;15.33;100.00
11487;BME280;10510;47.942;9.442;2023-09-19T06:31:07;94595.09;;;15.42;100.00
11487;BME280;10510;47.942;9.442;2023-09-19T06:33:09;94601.28;;;15.55;100.00
11487;BME280;10510;47.942;9.442;2023-09-19T06:35:13;94611.34;;;15.64;100.00
11487;BME280;10510;47.942;9.442;2023-09-19T06:37:14;94624.31;;;15.66;100.00
11487;BME280;10510;47.942;9.442;2023-09-19T06:39:14;94626.75;;;15.67;100.00
11487;BME280;10510;47.942;9.442;2023-09-19T06:41:14;94613.56;;;15.67;100.00
11487;BME280;10510;47.942;9.442;2023-09-19T06:43:16;94611.91;;;15.73;100.00
11487;BME280;10510;47.942;9.442;2023-09-19T06:45:16;94617.56;;;15.77;100.00
11487;BME280;10510;47.942;9.442;2023-09-19T06:47:19;94626.22;;;15.84;100.00
11487;BME280;10510;47.942;9.442;2023-09-19T06:49:20;94626.81;;;15.86;100.00
11487;BME280;10510;47.942;9.442;2023-09-19T06:51:20;94626.03;;;15.85;100.00
11487;BME280;10510;47.942;9.442;2023-09-19T06:53:21;94632.66;;;15.88;100.00
11487;BME280;10510;47.942;9.442;2023-09-19T06:55:23;94629.81;;;15.89;100.00
11487;BME280;10510;47.942;9.442;2023-09-19T06:57:25;94634.38;;;16.01;100.00
11487;BME280;10510;47.942;9.442;2023-09-19T06:59:25;94639.97;;;16.11;100.00
11487;BME280;10510;47.942;9.442;2023-09-19T07:01:25;94627.38;;;16.13;100.00
11487;BME280;10510;47.942;9.442;2023-09-19T07:03:26;94630.19;;;16.18;100.00
11487;BME280;10510;47.942;9.442;2023-09-19T07:05:31;94627.81;;;16.28;100.00
11487;BME280;10510;47.942;9.442;2023-09-19T07:07:32;94636.41;;;16.42;100.00
11487;BME280;10510;47.942;9.442;2023-09-19T07:09:35;94632.38;;;16.58;100.00
11487;BME280;10510;47.942;9.442;2023-09-19T07:11:35;94647.28;;;16.71;100.00
11487;BME280;10510;47.942;9.442;2023-09-19T07:13:35;94642.19;;;16.69;100.00
11487;BME280;10510;47.942;9.442;2023-09-19T07:15:38;94646.00;;;16.73;100.00
11487;BME280;10510;47.942;9.442;2023-09-19T07:17:41;94640.09;;;16.78;100.00
11487;BME280;10510;47.942;9.442;2023-09-19T07:19:41;94646.78;;;16.80;100.00
11487;BME280;10510;47.942;9.442;2023-09-19T07:21:42;94646.47;;;16.89;100.00
11487;BME280;10510;47.942;9.442;2023-09-19T07:23:42;94647.19;;;16.96;100.00
11487;BME280;10510;47.942;9.442;2023-09-19T07:25:42;94655.16;;;17.08;100.00
11487;BME280;10510;47.942;9.442;2023-09-19T07:27:43;94657.16;;;17.12;100.00
11487;BME280;10510;47.942;9.442;2023-09-19T07:29:43;94658.53;;;17.15;100.00
11487;BME280;10510;47.942;9.442;2023-09-19T07:31:44;94663.38;;;17.18;100.00
11487;BME280;10510;47.942;9.442;2023-09-19T07:33:46;94668.28;;;17.14;100.00
11487;BME280;10510;47.942;9.442;2023-09-19T07:35:47;94667.44;;;17.74;100.00
11487;BME280;10510;47.942;9.442;2023-09-19T07:37:48;94669.13;;;18.57;100.00
11487;BME280;10510;47.942;9.442;2023-09-19T07:39:49;94659.44;;;18.87;100.00
11487;BME280;10510;47.942;9.442;2023-09-19T07:41:50;94668.50;;;19.31;100.00
11487;BME280;10510;47.942;9.442;2023-09-19T07:43:51;94674.38;;;19.33;100.00
11487;BME280;10510;47.942;9.442;2023-09-19T07:45:52;94671.19;;;19.19;100.00
11487;BME280;10510;47.942;9.442;2023-09-19T07:47:52;94665.38;;;19.91;100.00
11487;BME280;10510;47.942;9.442;2023-09-19T07:49:53;94667.00;;;20.48;100.00
11487;BME280;10510;47.942;9.442;2023-09-19T07:51:53;94671.25;;;20.66;100.00
11487;BME280;10510;47.942;9.442;2023-09-19T07:53:54;94675.03;;;21.14;100.00
11487;BME280;10510;47.942;9.442;2023-09-19T07:56:02;94685.03;;;22.05;100.00
11487;BME280;10510;47.942;9.442;2023-09-19T07:58:03;94678.56;;;22.65;100.00
11487;BME280;10510;47.942;9.442;2023-09-19T08:00:05;94674.53;;;22.58;100.00
11487;BME280;10510;47.942;9.442;2023-09-19T08:02:07;94674.28;;;23.07;100.00
11487;BME280;10510;47.942;9.442;2023-09-19T08:04:09;94683.47;;;22.84;100.00
11487;BME280;10510;47.942;9.442;2023-09-19T08:06:10;94674.00;;;23.03;100.00
11487;BME280;10510;47.942;9.442;2023-09-19T08:08:10;94674.19;;;22.92;100.00
11487;BME280;10510;47.942;9.442;2023-09-19T08:10:14;94683.03;;;22.97;100.00
11487;BME280;10510;47.942;9.442;2023-09-19T08:12:15;94689.19;;;23.86;100.00
11487;BME280;10510;47.942;9.442;2023-09-19T08:14:17;94686.81;;;23.95;100.00
11487;BME280;10510;47.942;9.442;2023-09-19T08:16:17;94683.88;;;24.53;100.00
11487;BME280;10510;47.942;9.442;2023-09-19T08:18:22;94685.47;;;24.59;100.00
11487;BME280;10510;47.942;9.442;2023-09-19T08:20:22;94695.38;;;24.12;100.00
11487;BME280;10510;47.942;9.442;2023-09-19T08:22:23;94689.78;;;24.44;100.00
11487;BME280;10510;47.942;9.442;2023-09-19T08:24:25;94695.06;;;24.70;100.00
11487;BME280;10510;47.942;9.442;2023-09-19T08:26:28;94695.31;;;24.74;100.00
11487;BME280;10510;47.942;9.442;2023-09-19T08:28:28;94692.56;;;25.20;100.00
11487;BME280;10510;47.942;9.442;2023-09-19T08:30:30;94695.22;;;26.19;100.00
11487;BME280;10510;47.942;9.442;2023-09-19T08:32:30;94691.25;;;26.80;100.00
11487;BME280;10510;47.942;9.442;2023-09-19T08:34:30;94696.91;;;27.26;100.00
11487;BME280;10510;47.942;9.442;2023-09-19T08:36:34;94688.41;;;27.43;100.00
11487;BME280;10510;47.942;9.442;2023-09-19T08:38:35;94692.28;;;27.75;100.00
11487;BME280;10510;47.942;9.442;2023-09-19T08:40:38;94687.22;;;27.92;100.00
11487;BME280;10510;47.942;9.442;2023-09-19T08:42:50;94688.72;;;27.60;100.00
11487;BME280;10510;47.942;9.442;2023-09-19T08:44:50;94695.50;;;26.81;100.00
11487;BME280;10510;47.942;9.442;2023-09-19T08:46:55;94683.78;;;25.64;100.00
11487;BME280;10510;47.942;9.442;2023-09-19T08:49:05;94696.16;;;24.08;100.00
11487;BME280;10510;47.942;9.442;2023-09-19T08:51:12;94701.00;;;23.22;100.00
11487;BME280;10510;47.942;9.442;2023-09-19T08:53:36;94694.28;;;24.23;100.00
11487;BME280;10510;47.942;9.442;2023-09-19T08:55:43;94697.38;;;25.12;100.00
11487;BME280;10510;47.942;9.442;2023-09-19T08:57:44;94701.09;;;25.27;100.00
11487;BME280;10510;47.942;9.442;2023-09-19T08:59:49;94700.84;;;25.03;100.00
11487;BME280;10510;47.942;9.442;2023-09-19T09:01:50;94711.59;;;23.07;100.00
11487;BME280;10510;47.942;9.442;2023-09-19T09:03:54;94720.38;;;22.28;100.00
11487;BME280;10510;47.942;9.442;2023-09-19T09:05:55;94721.63;;;22.20;100.00
11487;BME280;10510;47.942;9.442;2023-09-19T09:07:57;94723.25;;;21.23;100.00
11487;BME280;10510;47.942;9.442;2023-09-19T09:09:58;94723.47;;;20.77;100.00
11487;BME280;10510;47.942;9.442;2023-09-19T09:11:59;94720.09;;;20.31;100.00
11487;BME280;10510;47.942;9.442;2023-09-19T09:13:59;94717.00;;;21.34;100.00
11487;BME280;10510;47.942;9.442;2023-09-19T09:16:00;94717.16;;;22.26;100.00
11487;BME280;10510;47.942;9.442;2023-09-19T09:18:00;94709.25;;;22.36;100.00
11487;BME280;10510;47.942;9.442;2023-09-19T09:20:00;94707.22;;;22.48;100.00
11487;BME280;10510;47.942;9.442;2023-09-19T09:22:08;94707.69;;;21.81;100.00
11487;BME280;10510;47.942;9.442;2023-09-19T09:28:44;94713.66;;;21.93;100.00
11487;BME280;10510;47.942;9.442;2023-09-19T09:30:45;94718.75;;;21.99;100.00
11487;BME280;10510;47.942;9.442;2023-09-19T09:32:46;94716.44;;;22.08;100.00
11487;BME280;10510;47.942;9.442;2023-09-19T09:34:52;94709.41;;;21.92;100.00
11487;BME280;10510;47.942;9.442;2023-09-19T09:36:53;94714.06;;;21.80;100.00
11487;BME280;10510;47.942;9.442;2023-09-19T09:38:53;94716.22;;;21.83;100.00
11487;BME280;10510;47.942;9.442;2023-09-19T09:40:56;94716.81;;;21.90;100.00
11487;BME280;10510;47.942;9.442;2023-09-19T09:43:25;94700.34;;;22.20;100.00
11487;BME280;10510;47.942;9.442;2023-09-19T09:45:25;94702.53;;;22.28;100.00
11487;BME280;10510;47.942;9.442;2023-09-19T09:47:44;94706.41;;;22.15;100.00
11487;BME280;10510;47.942;9.442;2023-09-19T09:49:50;94706.72;;;22.19;100.00
11487;BME280;10510;47.942;9.442;2023-09-19T09:52:05;94705.47;;;22.27;100.00
11487;BME280;10510;47.942;9.442;2023-09-19T09:54:17;94711.69;;;22.42;100.00
11487;BME280;10510;47.942;9.442;2023-09-19T09:56:19;94704.09;;;22.56;100.00
11487;BME280;10510;47.942;9.442;2023-09-19T09:58:19;94701.41;;;22.56;100.00
11487;BME280;10510;47.942;9.442;2023-09-19T10:00:23;94704.88;;;22.57;100.00
11487;BME280;10510;47.942;9.442;2023-09-19T10:02:34;94696.97;;;22.72;100.00
11487;BME280;10510;47.942;9.442;2023-09-19T10:04:36;94699.69;;;22.77;100.00
11487;BME280;10510;47.942;9.442;2023-09-19T10:06:44;94692.28;;;22.89;100.00
11487;BME280;10510;47.942;9.442;2023-09-19T10:09:20;94705.78;;;22.73;100.00
11487;BME280;10510;47.942;9.442;2023-09-19T10:11:21;94695.28;;;22.56;100.00
11487;BME280;10510;47.942;9.442;2023-09-19T10:13:31;94694.63;;;22.81;100.00
11487;BME280;10510;47.942;9.442;2023-09-19T10:15:33;94692.66;;;23.03;100.00
11487;BME280;10510;47.942;9.442;2023-09-19T10:17:36;94692.13;;;23.06;100.00
11487;BME280;10510;47.942;9.442;2023-09-19T10:19:52;94692.13;;;23.06;100.00
11487;BME280;10510;47.942;9.442;2023-09-19T10:21:58;94694.06;;;23.21;100.00
11487;BME280;10510;47.942;9.442;2023-09-19T10:24:00;94681.00;;;23.25;100.00
11487;BME280;10510;47.942;9.442;2023-09-19T10:26:03;94694.38;;;23.40;100.00
11487;BME280;10510;47.942;9.442;2023-09-19T10:28:06;94704.53;;;23.43;100.00
11487;BME280;10510;47.942;9.442;2023-09-19T10:30:11;94700.28;;;23.52;100.00
11487;BME280;10510;47.942;9.442;2023-09-19T10:32:14;94700.59;;;23.56;100.00
11487;BME280;10510;47.942;9.442;2023-09-19T10:34:19;94697.63;;;23.52;100.00
11487;BME280;10510;47.942;9.442;2023-09-19T10:36:24;94697.06;;;23.45;100.00
11487;BME280;10510;47.942;9.442;2023-09-19T10:38:26;94704.47;;;23.28;100.00
11487;BME280;10510;47.942;9.442;2023-09-19T10:40:28;94704.16;;;23.14;100.00
11487;BME280;10510;47.942;9.442;2023-09-19T10:42:30;94698.56;;;23.16;100.00
11487;BME280;10510;47.942;9.442;2023-09-19T10:44:33;94694.91;;;23.37;100.00
11487;BME280;10510;47.942;9.442;2023-09-19T10:46:33;94693.91;;;23.53;100.00
11487;BME280;10510;47.942;9.442;2023-09-19T10:48:34;94693.06;;;23.43;100.00
11487;BME280;10510;47.942;9.442;2023-09-19T10:50:46;94698.06;;;23.24;100.00
11487;BME280;10510;47.942;9.442;2023-09-19T10:52:49;94699.03;;;23.02;100.00